sensor_id;sensor_type;location;lat;lon;timestamp;temperature;humidity
65460;DHT22;52058;49.822;6.754;2023-09-07T00:01:11;14.02;97.16
65460;DHT22;52058;49.822;6.754;2023-09-07T00:03:38;14.00;96.95
65460;DHT22;52058;49.822;6.754;2023-09-07T00:06:06;13.95;96.67
65460;DHT22;52058;49.822;6.754;2023-09-07T00:08:33;13.90;96.74
65460;DHT22;52058;49.822;6.754;2023-09-07T00:11:02;13.85;96.94
65460;DHT22;52058;49.822;6.754;2023-09-07T00:13:31;13.78;97.12
65460;DHT22;52058;49.822;6.754;2023-09-07T00:15:58;13.78;97.21
65460;DHT22;52058;49.822;6.754;2023-09-07T00:18:26;13.83;97.79
65460;DHT22;52058;49.822;6.754;2023-09-07T00:20:52;13.81;97.60
65460;DHT22;52058;49.822;6.754;2023-09-07T00:23:19;13.78;97.28
65460;DHT22;52058;49.822;6.754;2023-09-07T00:25:46;13.72;97.70
65460;DHT22;52058;49.822;6.754;2023-09-07T00:28:13;13.72;97.57
65460;DHT22;52058;49.822;6.754;2023-09-07T00:30:41;13.69;97.46
65460;DHT22;52058;49.822;6.754;2023-09-07T00:33:07;13.65;97.45
65460;DHT22;52058;49.822;6.754;2023-09-07T00:35:34;13.58;98.28
65460;DHT22;52058;49.822;6.754;2023-09-07T00:38:01;13.58;98.21
65460;DHT22;52058;49.822;6.754;2023-09-07T00:40:28;13.61;98.41
65460;DHT22;52058;49.822;6.754;2023-09-07T00:42:55;13.59;97.91
65460;DHT22;52058;49.822;6.754;2023-09-07T00:45:21;13.58;97.65
65460;DHT22;52058;49.822;6.754;2023-09-07T00:47:49;13.54;98.27
65460;DHT22;52058;49.822;6.754;2023-09-07T00:50:16;13.52;98.20
65460;DHT22;52058;49.822;6.754;2023-09-07T00:52:43;13.51;98.41
65460;DHT22;52058;49.822;6.754;2023-09-07T00:55:12;13.48;98.61
65460;DHT22;52058;49.822;6.754;2023-09-07T00:57:39;13.45;98.44
65460;DHT22;52058;49.822;6.754;2023-09-07T01:00:08;13.44;98.23
65460;DHT22;52058;49.822;6.754;2023-09-07T01:02:35;13.41;98.19
65460;DHT22;52058;49.822;6.754;2023-09-07T01:05:04;13.37;98.27
65460;DHT22;52058;49.822;6.754;2023-09-07T01:07:32;13.34;98.02
65460;DHT22;52058;49.822;6.754;2023-09-07T01:10:02;13.34;98.27
65460;DHT22;52058;49.822;6.754;2023-09-07T01:12:29;13.30;98.34
65460;DHT22;52058;49.822;6.754;2023-09-07T01:14:55;13.30;98.58
65460;DHT22;52058;49.822;6.754;2023-09-07T01:17:24;13.30;98.55
65460;DHT22;52058;49.822;6.754;2023-09-07T01:19:51;13.27;98.47
65460;DHT22;52058;49.822;6.754;2023-09-07T01:22:21;13.27;98.48
65460;DHT22;52058;49.822;6.754;2023-09-07T01:24:49;13.21;98.37
65460;DHT22;52058;49.822;6.754;2023-09-07T01:27:16;13.21;98.33
65460;DHT22;52058;49.822;6.754;2023-09-07T01:29:43;13.18;98.42
65460;DHT22;52058;49.822;6.754;2023-09-07T01:32:10;13.11;98.62
65460;DHT22;52058;49.822;6.754;2023-09-07T01:34:37;13.14;98.44
65460;DHT22;52058;49.822;6.754;2023-09-07T01:37:04;13.10;98.77
65460;DHT22;52058;49.822;6.754;2023-09-07T01:39:31;13.07;98.54
65460;DHT22;52058;49.822;6.754;2023-09-07T01:41:58;13.08;98.34
65460;DHT22;52058;49.822;6.754;2023-09-07T01:44:25;13.02;98.16
65460;DHT22;52058;49.822;6.754;2023-09-07T01:46:52;12.93;98.23
65460;DHT22;52058;49.822;6.754;2023-09-07T01:49:18;12.94;98.53
65460;DHT22;52058;49.822;6.754;2023-09-07T01:51:45;12.93;98.57
65460;DHT22;52058;49.822;6.754;2023-09-07T01:54:12;12.90;98.44
65460;DHT22;52058;49.822;6.754;2023-09-07T01:56:39;12.89;98.39
65460;DHT22;52058;49.822;6.754;2023-09-07T01:59:07;12.87;98.63
65460;DHT22;52058;49.822;6.754;2023-09-07T02:01:33;12.83;98.51
65460;DHT22;52058;49.822;6.754;2023-09-07T02:04:03;12.84;98.80
65460;DHT22;52058;49.822;6.754;2023-09-07T02:06:29;12.82;98.39
65460;DHT22;52058;49.822;6.754;2023-09-07T02:08:56;12.77;98.44
65460;DHT22;52058;49.822;6.754;2023-09-07T02:11:23;12.77;98.21
65460;DHT22;52058;49.822;6.754;2023-09-07T02:13:51;12.72;98.32
65460;DHT22;52058;49.822;6.754;2023-09-07T02:16:17;12.73;98.24
65460;DHT22;52058;49.822;6.754;2023-09-07T02:18:44;12.69;98.42
65460;DHT22;52058;49.822;6.754;2023-09-07T02:21:12;12.67;98.57
65460;DHT22;52058;49.822;6.754;2023-09-07T02:23:39;12.66;98.44
65460;DHT22;52058;49.822;6.754;2023-09-07T02:26:06;12.65;98.41
65460;DHT22;52058;49.822;6.754;2023-09-07T02:28:32;12.57;98.44
65460;DHT22;52058;49.822;6.754;2023-09-07T02:31:04;12.59;98.54
65460;DHT22;52058;49.822;6.754;2023-09-07T02:33:30;12.59;98.50
65460;DHT22;52058;49.822;6.754;2023-09-07T02:35:57;12.55;98.48
65460;DHT22;52058;49.822;6.754;2023-09-07T02:38:24;12.52;98.35
65460;DHT22;52058;49.822;6.754;2023-09-07T02:40:51;12.49;98.54
65460;DHT22;52058;49.822;6.754;2023-09-07T02:43:18;12.46;98.56
65460;DHT22;52058;49.822;6.754;2023-09-07T02:45:44;12.44;98.69
65460;DHT22;52058;49.822;6.754;2023-09-07T02:48:12;12.44;98.66
65460;DHT22;52058;49.822;6.754;2023-09-07T02:50:39;12.42;99.19
65460;DHT22;52058;49.822;6.754;2023-09-07T02:53:06;12.41;98.90
65460;DHT22;52058;49.822;6.754;2023-09-07T02:55:32;12.39;98.84
65460;DHT22;52058;49.822;6.754;2023-09-07T02:58:02;12.38;98.49
65460;DHT22;52058;49.822;6.754;2023-09-07T03:00:29;12.32;98.39
65460;DHT22;52058;49.822;6.754;2023-09-07T03:02:55;12.31;98.31
65460;DHT22;52058;49.822;6.754;2023-09-07T03:05:26;12.25;98.47
65460;DHT22;52058;49.822;6.754;2023-09-07T03:07:53;12.24;98.46
65460;DHT22;52058;49.822;6.754;2023-09-07T03:10:20;12.20;98.36
65460;DHT22;52058;49.822;6.754;2023-09-07T03:12:46;12.17;98.35
65460;DHT22;52058;49.822;6.754;2023-09-07T03:15:13;12.17;98.79
65460;DHT22;52058;49.822;6.754;2023-09-07T03:17:39;12.21;99.46
65460;DHT22;52058;49.822;6.754;2023-09-07T03:20:07;12.25;99.31
65460;DHT22;52058;49.822;6.754;2023-09-07T03:22:40;12.21;98.95
65460;DHT22;52058;49.822;6.754;2023-09-07T03:25:08;12.20;99.20
65460;DHT22;52058;49.822;6.754;2023-09-07T03:27:35;12.22;99.46
65460;DHT22;52058;49.822;6.754;2023-09-07T03:30:01;12.22;99.31
65460;DHT22;52058;49.822;6.754;2023-09-07T03:32:29;12.20;99.08
65460;DHT22;52058;49.822;6.754;2023-09-07T03:34:58;12.20;98.98
65460;DHT22;52058;49.822;6.754;2023-09-07T03:37:24;12.18;99.11
65460;DHT22;52058;49.822;6.754;2023-09-07T03:39:52;12.14;98.84
65460;DHT22;52058;49.822;6.754;2023-09-07T03:42:19;12.10;98.74
65460;DHT22;52058;49.822;6.754;2023-09-07T03:44:45;12.08;98.84
65460;DHT22;52058;49.822;6.754;2023-09-07T03:47:13;12.02;98.78
65460;DHT22;52058;49.822;6.754;2023-09-07T03:49:40;11.99;99.26
65460;DHT22;52058;49.822;6.754;2023-09-07T03:52:07;12.01;99.19
65460;DHT22;52058;49.822;6.754;2023-09-07T03:54:33;11.98;99.06
65460;DHT22;52058;49.822;6.754;2023-09-07T03:57:01;12.01;99.99
65460;DHT22;52058;49.822;6.754;2023-09-07T03:59:29;11.97;99.36
65460;DHT22;52058;49.822;6.754;2023-09-07T04:01:55;11.99;99.73
65460;DHT22;52058;49.822;6.754;2023-09-07T04:04:22;12.05;99.93
65460;DHT22;52058;49.822;6.754;2023-09-07T04:06:49;12.01;99.48
65460;DHT22;52058;49.822;6.754;2023-09-07T04:09:15;12.02;99.27
65460;DHT22;52058;49.822;6.754;2023-09-07T04:11:42;11.95;99.22
65460;DHT22;52058;49.822;6.754;2023-09-07T04:14:10;11.93;99.05
65460;DHT22;52058;49.822;6.754;2023-09-07T04:16:36;11.90;99.00
65460;DHT22;52058;49.822;6.754;2023-09-07T04:19:03;11.84;98.96
65460;DHT22;52058;49.822;6.754;2023-09-07T04:21:30;11.83;99.11
65460;DHT22;52058;49.822;6.754;2023-09-07T04:23:56;11.84;99.25
65460;DHT22;52058;49.822;6.754;2023-09-07T04:26:23;11.84;99.42
65460;DHT22;52058;49.822;6.754;2023-09-07T04:28:50;11.83;99.49
65460;DHT22;52058;49.822;6.754;2023-09-07T04:31:17;11.84;99.34
65460;DHT22;52058;49.822;6.754;2023-09-07T04:33:44;11.88;99.51
65460;DHT22;52058;49.822;6.754;2023-09-07T04:36:12;11.84;99.46
65460;DHT22;52058;49.822;6.754;2023-09-07T04:38:39;11.84;99.34
65460;DHT22;52058;49.822;6.754;2023-09-07T04:41:07;11.84;99.36
65460;DHT22;52058;49.822;6.754;2023-09-07T04:43:33;11.81;99.22
65460;DHT22;52058;49.822;6.754;2023-09-07T04:46:05;11.83;99.39
65460;DHT22;52058;49.822;6.754;2023-09-07T04:48:36;11.84;99.37
65460;DHT22;52058;49.822;6.754;2023-09-07T04:51:04;11.81;99.62
65460;DHT22;52058;49.822;6.754;2023-09-07T04:53:32;11.84;99.54
65460;DHT22;52058;49.822;6.754;2023-09-07T04:56:00;11.83;99.40
65460;DHT22;52058;49.822;6.754;2023-09-07T04:58:27;11.83;99.32
65460;DHT22;52058;49.822;6.754;2023-09-07T05:00:53;11.81;99.14
65460;DHT22;52058;49.822;6.754;2023-09-07T05:03:20;11.76;99.12
65460;DHT22;52058;49.822;6.754;2023-09-07T05:05:53;11.76;99.30
65460;DHT22;52058;49.822;6.754;2023-09-07T05:08:19;11.74;99.21
65460;DHT22;52058;49.822;6.754;2023-09-07T05:10:48;11.73;99.16
65460;DHT22;52058;49.822;6.754;2023-09-07T05:13:14;11.74;99.54
65460;DHT22;52058;49.822;6.754;2023-09-07T05:15:47;11.77;99.46
65460;DHT22;52058;49.822;6.754;2023-09-07T05:18:13;11.78;99.45
65460;DHT22;52058;49.822;6.754;2023-09-07T05:20:40;11.81;99.38
65460;DHT22;52058;49.822;6.754;2023-09-07T05:23:08;11.83;99.40
65460;DHT22;52058;49.822;6.754;2023-09-07T05:25:42;11.86;99.48
65460;DHT22;52058;49.822;6.754;2023-09-07T05:28:09;11.87;99.32
65460;DHT22;52058;49.822;6.754;2023-09-07T05:30:36;11.87;99.53
65460;DHT22;52058;49.822;6.754;2023-09-07T05:33:03;11.88;99.68
65460;DHT22;52058;49.822;6.754;2023-09-07T05:35:30;11.94;99.73
65460;DHT22;52058;49.822;6.754;2023-09-07T05:37:57;11.95;99.38
65460;DHT22;52058;49.822;6.754;2023-09-07T05:40:25;11.98;99.33
65460;DHT22;52058;49.822;6.754;2023-09-07T05:42:52;11.97;99.27
65460;DHT22;52058;49.822;6.754;2023-09-07T05:45:19;11.97;99.27
65460;DHT22;52058;49.822;6.754;2023-09-07T05:47:46;12.01;99.22
65460;DHT22;52058;49.822;6.754;2023-09-07T05:50:13;12.02;99.16
65460;DHT22;52058;49.822;6.754;2023-09-07T05:52:39;12.02;99.22
65460;DHT22;52058;49.822;6.754;2023-09-07T05:55:07;12.05;99.34
65460;DHT22;52058;49.822;6.754;2023-09-07T05:57:35;12.11;99.33
65460;DHT22;52058;49.822;6.754;2023-09-07T06:00:02;12.11;99.34
65460;DHT22;52058;49.822;6.754;2023-09-07T06:02:29;12.13;99.39
65460;DHT22;52058;49.822;6.754;2023-09-07T06:04:56;12.18;99.47
65460;DHT22;52058;49.822;6.754;2023-09-07T06:07:23;12.24;99.64
65460;DHT22;52058;49.822;6.754;2023-09-07T06:09:49;12.29;99.66
65460;DHT22;52058;49.822;6.754;2023-09-07T06:12:16;12.34;99.62
65460;DHT22;52058;49.822;6.754;2023-09-07T06:14:44;12.39;99.82
65460;DHT22;52058;49.822;6.754;2023-09-07T06:17:11;12.49;99.99
65460;DHT22;52058;49.822;6.754;2023-09-07T06:19:38;12.57;99.99
65460;DHT22;52058;49.822;6.754;2023-09-07T06:22:05;12.63;99.99
65460;DHT22;52058;49.822;6.754;2023-09-07T06:24:32;12.75;99.99
65460;DHT22;52058;49.822;6.754;2023-09-07T06:26:58;12.82;99.99
65460;DHT22;52058;49.822;6.754;2023-09-07T06:29:25;12.87;99.99
65460;DHT22;52058;49.822;6.754;2023-09-07T06:31:53;13.00;99.99
65460;DHT22;52058;49.822;6.754;2023-09-07T06:34:20;13.03;99.99
65460;DHT22;52058;49.822;6.754;2023-09-07T06:36:46;13.14;99.99
65460;DHT22;52058;49.822;6.754;2023-09-07T06:39:13;13.24;99.99
65460;DHT22;52058;49.822;6.754;2023-09-07T06:41:39;13.30;99.99
65460;DHT22;52058;49.822;6.754;2023-09-07T06:44:07;13.45;99.99
65460;DHT22;52058;49.822;6.754;2023-09-07T06:46:33;13.57;99.99
65460;DHT22;52058;49.822;6.754;2023-09-07T06:49:01;13.68;99.99
65460;DHT22;52058;49.822;6.754;2023-09-07T06:51:30;13.73;99.99
65460;DHT22;52058;49.822;6.754;2023-09-07T06:53:56;13.81;99.99
65460;DHT22;52058;49.822;6.754;2023-09-07T06:56:23;13.83;99.99
65460;DHT22;52058;49.822;6.754;2023-09-07T06:58:51;13.90;99.99
65460;DHT22;52058;49.822;6.754;2023-09-07T07:01:17;14.00;99.99
65460;DHT22;52058;49.822;6.754;2023-09-07T07:03:44;14.12;99.99
65460;DHT22;52058;49.822;6.754;2023-09-07T07:06:12;14.14;99.99
65460;DHT22;52058;49.822;6.754;2023-09-07T07:08:38;14.21;99.99
65460;DHT22;52058;49.822;6.754;2023-09-07T07:11:05;14.31;99.99
65460;DHT22;52058;49.822;6.754;2023-09-07T07:13:33;14.42;99.99
65460;DHT22;52058;49.822;6.754;2023-09-07T07:15:59;14.52;99.99
65460;DHT22;52058;49.822;6.754;2023-09-07T07:18:26;14.68;99.99
65460;DHT22;52058;49.822;6.754;2023-09-07T07:20:52;14.93;99.51
65460;DHT22;52058;49.822;6.754;2023-09-07T07:23:20;15.13;98.44
65460;DHT22;52058;49.822;6.754;2023-09-07T07:25:47;15.42;96.67
65460;DHT22;52058;49.822;6.754;2023-09-07T07:28:13;15.67;95.25
65460;DHT22;52058;49.822;6.754;2023-09-07T07:30:40;15.83;95.73
65460;DHT22;52058;49.822;6.754;2023-09-07T07:33:07;15.97;94.54
65460;DHT22;52058;49.822;6.754;2023-09-07T07:35:34;16.09;93.97
65460;DHT22;52058;49.822;6.754;2023-09-07T07:38:01;16.21;93.42
65460;DHT22;52058;49.822;6.754;2023-09-07T07:40:30;16.42;92.88
65460;DHT22;52058;49.822;6.754;2023-09-07T07:42:57;16.56;91.98
65460;DHT22;52058;49.822;6.754;2023-09-07T07:45:23;16.66;91.56
65460;DHT22;52058;49.822;6.754;2023-09-07T07:47:50;16.72;91.86
65460;DHT22;52058;49.822;6.754;2023-09-07T07:50:17;16.88;91.76
65460;DHT22;52058;49.822;6.754;2023-09-07T07:52:44;17.04;90.91
65460;DHT22;52058;49.822;6.754;2023-09-07T07:55:11;17.21;90.39
65460;DHT22;52058;49.822;6.754;2023-09-07T07:57:39;17.30;90.52
65460;DHT22;52058;49.822;6.754;2023-09-07T08:00:07;17.38;89.73
65460;DHT22;52058;49.822;6.754;2023-09-07T08:02:34;17.44;89.88
65460;DHT22;52058;49.822;6.754;2023-09-07T08:05:00;17.55;89.79
65460;DHT22;52058;49.822;6.754;2023-09-07T08:07:27;17.62;89.81
65460;DHT22;52058;49.822;6.754;2023-09-07T08:09:53;17.75;89.48
65460;DHT22;52058;49.822;6.754;2023-09-07T08:12:20;17.90;89.40
65460;DHT22;52058;49.822;6.754;2023-09-07T08:14:48;17.96;88.95
65460;DHT22;52058;49.822;6.754;2023-09-07T08:17:14;18.03;88.77
65460;DHT22;52058;49.822;6.754;2023-09-07T08:19:41;18.14;88.70
65460;DHT22;52058;49.822;6.754;2023-09-07T08:22:09;18.29;88.55
65460;DHT22;52058;49.822;6.754;2023-09-07T08:24:35;18.41;88.41
65460;DHT22;52058;49.822;6.754;2023-09-07T08:27:02;18.58;88.49
65460;DHT22;52058;49.822;6.754;2023-09-07T08:29:29;18.67;88.16
65460;DHT22;52058;49.822;6.754;2023-09-07T08:31:59;18.78;87.76
65460;DHT22;52058;49.822;6.754;2023-09-07T08:34:27;18.82;88.38
65460;DHT22;52058;49.822;6.754;2023-09-07T08:36:53;18.98;87.98
65460;DHT22;52058;49.822;6.754;2023-09-07T08:39:24;19.15;87.92
65460;DHT22;52058;49.822;6.754;2023-09-07T08:41:50;19.22;87.67
65460;DHT22;52058;49.822;6.754;2023-09-07T08:44:17;19.45;87.95
65460;DHT22;52058;49.822;6.754;2023-09-07T08:46:44;19.51;87.53
65460;DHT22;52058;49.822;6.754;2023-09-07T08:49:13;19.59;86.33
65460;DHT22;52058;49.822;6.754;2023-09-07T08:51:39;19.70;86.27
65460;DHT22;52058;49.822;6.754;2023-09-07T08:54:07;19.84;86.21
65460;DHT22;52058;49.822;6.754;2023-09-07T08:56:35;19.91;85.58
65460;DHT22;52058;49.822;6.754;2023-09-07T08:59:04;20.02;85.51
65460;DHT22;52058;49.822;6.754;2023-09-07T09:01:34;20.14;84.74
65460;DHT22;52058;49.822;6.754;2023-09-07T09:04:04;20.18;84.79
65460;DHT22;52058;49.822;6.754;2023-09-07T09:06:33;20.30;84.70
65460;DHT22;52058;49.822;6.754;2023-09-07T09:09:00;20.40;84.35
65460;DHT22;52058;49.822;6.754;2023-09-07T09:11:33;20.48;84.58
65460;DHT22;52058;49.822;6.754;2023-09-07T09:14:05;20.65;83.72
65460;DHT22;52058;49.822;6.754;2023-09-07T09:16:33;20.79;83.89
65460;DHT22;52058;49.822;6.754;2023-09-07T09:19:02;20.91;83.58
65460;DHT22;52058;49.822;6.754;2023-09-07T09:21:31;21.03;82.85
65460;DHT22;52058;49.822;6.754;2023-09-07T09:23:59;21.10;82.37
65460;DHT22;52058;49.822;6.754;2023-09-07T09:26:29;21.31;80.84
65460;DHT22;52058;49.822;6.754;2023-09-07T09:28:56;21.39;80.62
65460;DHT22;52058;49.822;6.754;2023-09-07T09:31:36;21.58;80.67
65460;DHT22;52058;49.822;6.754;2023-09-07T09:34:07;21.59;80.07
65460;DHT22;52058;49.822;6.754;2023-09-07T09:36:49;21.71;79.50
65460;DHT22;52058;49.822;6.754;2023-09-07T09:39:28;21.75;78.93
65460;DHT22;52058;49.822;6.754;2023-09-07T09:41:56;21.86;79.29
65460;DHT22;52058;49.822;6.754;2023-09-07T09:44:28;22.00;78.25
65460;DHT22;52058;49.822;6.754;2023-09-07T09:46:55;22.06;78.85
65460;DHT22;52058;49.822;6.754;2023-09-07T09:49:26;22.12;78.56
65460;DHT22;52058;49.822;6.754;2023-09-07T09:51:54;22.40;77.77
65460;DHT22;52058;49.822;6.754;2023-09-07T09:54:27;22.50;77.20
65460;DHT22;52058;49.822;6.754;2023-09-07T09:56:57;22.64;76.86
65460;DHT22;52058;49.822;6.754;2023-09-07T09:59:25;22.67;76.67
65460;DHT22;52058;49.822;6.754;2023-09-07T10:01:56;22.71;76.45
65460;DHT22;52058;49.822;6.754;2023-09-07T10:04:23;22.82;76.22
65460;DHT22;52058;49.822;6.754;2023-09-07T10:06:54;22.81;76.92
65460;DHT22;52058;49.822;6.754;2023-09-07T10:09:21;22.99;76.94
65460;DHT22;52058;49.822;6.754;2023-09-07T10:11:53;23.01;75.54
65460;DHT22;52058;49.822;6.754;2023-09-07T10:14:19;23.06;74.84
65460;DHT22;52058;49.822;6.754;2023-09-07T10:16:48;23.13;74.78
65460;DHT22;52058;49.822;6.754;2023-09-07T10:19:16;23.24;74.46
65460;DHT22;52058;49.822;6.754;2023-09-07T10:21:42;23.40;74.49
65460;DHT22;52058;49.822;6.754;2023-09-07T10:24:09;23.50;74.47
65460;DHT22;52058;49.822;6.754;2023-09-07T10:26:36;23.59;74.31
65460;DHT22;52058;49.822;6.754;2023-09-07T10:29:04;23.73;73.73
65460;DHT22;52058;49.822;6.754;2023-09-07T10:31:31;23.77;73.48
65460;DHT22;52058;49.822;6.754;2023-09-07T10:34:07;23.75;74.15
65460;DHT22;52058;49.822;6.754;2023-09-07T10:36:35;23.88;73.82
65460;DHT22;52058;49.822;6.754;2023-09-07T10:39:03;23.93;73.85
65460;DHT22;52058;49.822;6.754;2023-09-07T10:41:39;24.00;74.12
65460;DHT22;52058;49.822;6.754;2023-09-07T10:44:08;24.02;72.86
65460;DHT22;52058;49.822;6.754;2023-09-07T10:46:37;24.09;72.77
65460;DHT22;52058;49.822;6.754;2023-09-07T10:49:06;24.25;71.88
65460;DHT22;52058;49.822;6.754;2023-09-07T10:51:40;24.19;71.78
65460;DHT22;52058;49.822;6.754;2023-09-07T10:54:13;24.19;71.56
65460;DHT22;52058;49.822;6.754;2023-09-07T10:56:40;24.28;71.13
65460;DHT22;52058;49.822;6.754;2023-09-07T10:59:08;24.38;71.45
65460;DHT22;52058;49.822;6.754;2023-09-07T11:01:35;24.39;72.32
65460;DHT22;52058;49.822;6.754;2023-09-07T11:04:01;24.43;72.47
65460;DHT22;52058;49.822;6.754;2023-09-07T11:06:29;24.65;70.77
65460;DHT22;52058;49.822;6.754;2023-09-07T11:08:59;24.73;71.32
65460;DHT22;52058;49.822;6.754;2023-09-07T11:11:26;24.80;70.85
65460;DHT22;52058;49.822;6.754;2023-09-07T11:13:53;24.84;71.15
65460;DHT22;52058;49.822;6.754;2023-09-07T11:16:24;24.96;69.29
65460;DHT22;52058;49.822;6.754;2023-09-07T11:18:51;25.00;69.26
65460;DHT22;52058;49.822;6.754;2023-09-07T11:21:19;25.07;68.97
65460;DHT22;52058;49.822;6.754;2023-09-07T11:23:46;25.17;69.60
65460;DHT22;52058;49.822;6.754;2023-09-07T11:26:13;25.23;69.51
65460;DHT22;52058;49.822;6.754;2023-09-07T11:28:44;25.23;69.84
65460;DHT22;52058;49.822;6.754;2023-09-07T11:31:11;25.25;69.26
65460;DHT22;52058;49.822;6.754;2023-09-07T11:33:41;25.34;68.75
65460;DHT22;52058;49.822;6.754;2023-09-07T11:36:07;25.52;67.85
65460;DHT22;52058;49.822;6.754;2023-09-07T11:38:37;25.52;67.56
65460;DHT22;52058;49.822;6.754;2023-09-07T11:41:04;25.45;68.61
65460;DHT22;52058;49.822;6.754;2023-09-07T11:43:30;25.51;68.33
65460;DHT22;52058;49.822;6.754;2023-09-07T11:45:58;25.62;68.61
65460;DHT22;52058;49.822;6.754;2023-09-07T11:48:26;25.72;67.13
65460;DHT22;52058;49.822;6.754;2023-09-07T11:50:55;25.71;66.51
65460;DHT22;52058;49.822;6.754;2023-09-07T11:53:21;25.86;66.34
65460;DHT22;52058;49.822;6.754;2023-09-07T11:55:48;25.97;65.46
65460;DHT22;52058;49.822;6.754;2023-09-07T11:58:14;25.97;65.75
65460;DHT22;52058;49.822;6.754;2023-09-07T12:00:41;26.02;65.21
65460;DHT22;52058;49.822;6.754;2023-09-07T12:03:08;25.95;65.55
65460;DHT22;52058;49.822;6.754;2023-09-07T12:05:35;26.04;65.26
65460;DHT22;52058;49.822;6.754;2023-09-07T12:08:05;26.17;65.64
65460;DHT22;52058;49.822;6.754;2023-09-07T12:10:31;26.26;64.62
65460;DHT22;52058;49.822;6.754;2023-09-07T12:12:58;26.20;65.26
65460;DHT22;52058;49.822;6.754;2023-09-07T12:15:24;26.27;65.29
65460;DHT22;52058;49.822;6.754;2023-09-07T12:17:53;26.40;64.24
65460;DHT22;52058;49.822;6.754;2023-09-07T12:20:21;26.53;62.08
65460;DHT22;52058;49.822;6.754;2023-09-07T12:22:47;26.50;62.99
65460;DHT22;52058;49.822;6.754;2023-09-07T12:25:16;26.50;63.47
65460;DHT22;52058;49.822;6.754;2023-09-07T12:27:42;26.58;63.28
65460;DHT22;52058;49.822;6.754;2023-09-07T12:30:11;26.60;62.99
65460;DHT22;52058;49.822;6.754;2023-09-07T12:32:38;26.62;62.58
65460;DHT22;52058;49.822;6.754;2023-09-07T12:35:06;26.75;61.97
65460;DHT22;52058;49.822;6.754;2023-09-07T12:37:33;26.78;62.36
65460;DHT22;52058;49.822;6.754;2023-09-07T12:40:00;26.78;62.49
65460;DHT22;52058;49.822;6.754;2023-09-07T12:42:28;26.80;61.61
65460;DHT22;52058;49.822;6.754;2023-09-07T12:44:55;26.85;61.76
65460;DHT22;52058;49.822;6.754;2023-09-07T12:47:21;26.81;62.05
65460;DHT22;52058;49.822;6.754;2023-09-07T12:49:48;27.15;62.56
65460;DHT22;52058;49.822;6.754;2023-09-07T12:52:14;27.22;62.43
65460;DHT22;52058;49.822;6.754;2023-09-07T12:54:41;27.73;60.92
65460;DHT22;52058;49.822;6.754;2023-09-07T12:57:08;27.98;59.01
65460;DHT22;52058;49.822;6.754;2023-09-07T12:59:36;28.52;58.45
65460;DHT22;52058;49.822;6.754;2023-09-07T13:02:02;29.17;54.87
65460;DHT22;52058;49.822;6.754;2023-09-07T13:04:29;29.90;53.82
65460;DHT22;52058;49.822;6.754;2023-09-07T13:06:56;30.95;51.64
65460;DHT22;52058;49.822;6.754;2023-09-07T13:09:22;32.23;49.29
65460;DHT22;52058;49.822;6.754;2023-09-07T13:11:49;34.15;46.36
65460;DHT22;52058;49.822;6.754;2023-09-07T13:14:15;37.30;42.14
65460;DHT22;52058;49.822;6.754;2023-09-07T13:16:43;39.30;39.26
65460;DHT22;52058;49.822;6.754;2023-09-07T13:19:10;39.81;37.60
65460;DHT22;52058;49.822;6.754;2023-09-07T13:21:37;41.24;36.69
65460;DHT22;52058;49.822;6.754;2023-09-07T13:24:04;41.46;36.10
65460;DHT22;52058;49.822;6.754;2023-09-07T13:26:30;42.32;35.21
65460;DHT22;52058;49.822;6.754;2023-09-07T13:28:57;42.85;34.72
65460;DHT22;52058;49.822;6.754;2023-09-07T13:31:24;43.20;34.17
65460;DHT22;52058;49.822;6.754;2023-09-07T13:33:52;43.40;34.55
65460;DHT22;52058;49.822;6.754;2023-09-07T13:36:18;44.11;34.36
65460;DHT22;52058;49.822;6.754;2023-09-07T13:38:45;44.15;33.54
65460;DHT22;52058;49.822;6.754;2023-09-07T13:41:11;44.56;33.03
65460;DHT22;52058;49.822;6.754;2023-09-07T13:43:38;45.10;33.09
65460;DHT22;52058;49.822;6.754;2023-09-07T13:46:04;45.53;33.48
65460;DHT22;52058;49.822;6.754;2023-09-07T13:48:31;45.56;32.81
65460;DHT22;52058;49.822;6.754;2023-09-07T13:51:00;45.36;32.78
65460;DHT22;52058;49.822;6.754;2023-09-07T13:53:26;45.09;32.60
65460;DHT22;52058;49.822;6.754;2023-09-07T13:55:53;45.29;32.40
65460;DHT22;52058;49.822;6.754;2023-09-07T13:58:19;44.89;33.22
65460;DHT22;52058;49.822;6.754;2023-09-07T14:00:46;45.03;32.56
65460;DHT22;52058;49.822;6.754;2023-09-07T14:03:13;44.86;32.34
65460;DHT22;52058;49.822;6.754;2023-09-07T14:05:39;45.30;32.60
65460;DHT22;52058;49.822;6.754;2023-09-07T14:08:07;44.96;32.39
65460;DHT22;52058;49.822;6.754;2023-09-07T14:10:34;44.80;32.89
65460;DHT22;52058;49.822;6.754;2023-09-07T14:13:00;44.32;32.79
65460;DHT22;52058;49.822;6.754;2023-09-07T14:15:27;44.89;32.82
65460;DHT22;52058;49.822;6.754;2023-09-07T14:17:53;45.07;33.22
65460;DHT22;52058;49.822;6.754;2023-09-07T14:20:20;45.27;33.09
65460;DHT22;52058;49.822;6.754;2023-09-07T14:22:47;44.98;33.08
65460;DHT22;52058;49.822;6.754;2023-09-07T14:25:15;44.83;32.89
65460;DHT22;52058;49.822;6.754;2023-09-07T14:27:42;44.51;33.50
65460;DHT22;52058;49.822;6.754;2023-09-07T14:30:09;44.52;33.31
65460;DHT22;52058;49.822;6.754;2023-09-07T14:32:36;44.89;33.08
65460;DHT22;52058;49.822;6.754;2023-09-07T14:35:03;44.65;33.63
65460;DHT22;52058;49.822;6.754;2023-09-07T14:37:30;44.32;33.83
65460;DHT22;52058;49.822;6.754;2023-09-07T14:39:56;44.14;34.08
65460;DHT22;52058;49.822;6.754;2023-09-07T14:42:25;43.90;34.12
65460;DHT22;52058;49.822;6.754;2023-09-07T14:44:52;43.56;34.39
65460;DHT22;52058;49.822;6.754;2023-09-07T14:47:19;43.73;34.39
65460;DHT22;52058;49.822;6.754;2023-09-07T14:49:50;43.94;34.05
65460;DHT22;52058;49.822;6.754;2023-09-07T14:52:17;44.05;34.05
65460;DHT22;52058;49.822;6.754;2023-09-07T14:54:43;43.98;34.42
65460;DHT22;52058;49.822;6.754;2023-09-07T14:57:10;43.88;34.45
65460;DHT22;52058;49.822;6.754;2023-09-07T14:59:38;43.56;34.17
65460;DHT22;52058;49.822;6.754;2023-09-07T15:02:05;43.76;34.04
65460;DHT22;52058;49.822;6.754;2023-09-07T15:04:33;43.64;34.41
65460;DHT22;52058;49.822;6.754;2023-09-07T15:07:00;43.26;35.14
65460;DHT22;52058;49.822;6.754;2023-09-07T15:09:27;43.33;34.71
65460;DHT22;52058;49.822;6.754;2023-09-07T15:11:53;43.59;34.99
65460;DHT22;52058;49.822;6.754;2023-09-07T15:14:20;43.66;34.52
65460;DHT22;52058;49.822;6.754;2023-09-07T15:16:48;43.76;34.28
65460;DHT22;52058;49.822;6.754;2023-09-07T15:19:14;43.50;34.65
65460;DHT22;52058;49.822;6.754;2023-09-07T15:21:41;43.25;35.11
65460;DHT22;52058;49.822;6.754;2023-09-07T15:24:07;43.59;34.60
65460;DHT22;52058;49.822;6.754;2023-09-07T15:26:41;43.01;35.27
65460;DHT22;52058;49.822;6.754;2023-09-07T15:29:08;42.78;35.96
65460;DHT22;52058;49.822;6.754;2023-09-07T15:31:35;42.95;35.86